Detall de PIREP

Printer-friendly versionPDF version

[2013/02/09 10:00:00]
Flight IATA:CT3217
Pilot Number:012
Company ICAO:CAT
Aircraft Type:B744/E
PAX:277
Departing Airport: EIDW
Destination Airport: LEPA
Alternate Airport:LEBL
Online: VATSIM
Route:BEPAN P620 BANBA UP620 LND UM142 BERAD UN490 TERPO UM616 TUPAR UM184 CNA UN863 AGN UN727 LOMRA UN859 BCN DCT LORES
Flight Level:F390
No Slew and time accel
No pause
Crash detect
Detect pilot in Cockpit between each 30 and 45 minutes
10:00 Zero fuel Weight: 458833 Lbs, Fuel Weight: 94629 Lbs
10:00 VATSIM:EIDW 090930Z 26013KT 9000 -RADZ FEW006 BKN035 07/06 Q1018 TEMPO 5000 BKN006
10:00 VATSIM:LEPA 090930Z 05018KT 9999 FEW028 SCT056 10/M03 Q1020 NOSIG
10:00 VOICE CATALONIAN
10:02 Parking Brakes off
10:05 Take-off
10:05 Take off Weight: 552026 Lbs
10:05 Wind: 268º @ 013 Knots Heading: 274º
10:05 POS N53º 25´ 17´´ W006º 16´ 20´´
10:05 Gear Up: 185 Knots
10:05 Flaps:3 at 186Knots
10:06 Flaps:2 at 196 Knots
10:06 Flaps:1 at 203 Knots
10:07 Flaps:0 at 242 Knots
10:20 Wind:335º@041 Knots Heading: 173º Ground Speed: 522 Knots Altitude 36256 ft
10:23 TOC
10:23 Fuel Weight: 80438 Lb
10:35 Wind:338º@051 Knots Heading: 163º Ground Speed: 522 Knots Altitude 39255 ft
10:50 Wind:343º@059 Knots Heading: 129º Ground Speed: 525 Knots Altitude 39284 ft
11:05 Wind:347º@065 Knots Heading: 134º Ground Speed: 532 Knots Altitude 39274 ft
11:20 Wind:355º@068 Knots Heading: 151º Ground Speed: 542 Knots Altitude 39281 ft
11:35 Wind:356º@060 Knots Heading: 152º Ground Speed: 539 Knots Altitude 39245 ft
11:45 TOD
11:45 Fuel Weight: 53300 Lb
11:50 Wind:002º@063 Knots Heading: 146º Ground Speed: 483 Knots Altitude 26158 ft
11:59 Flaps:1 at 242 Knots
12:01 Flaps:2 at 231 Knots
12:05 Wind:043º@011 Knots Heading: 060º Ground Speed: 183 Knots Altitude 1886 ft
12:05 Gear Down: 184 Knots
12:05 Flaps:3 at 184 Knots
12:06 Flaps:4 at 177 Knots
12:06 Flaps:5 at 162 Knots
12:06 Flaps:6 at 155 Knots
12:09 TouchDown:Rate -268 ft/min Speed: 133 Knots
12:09 VATSIM:LEPA 091200Z 31008KT 9999 FEW018 SCT050 09/00 Q1021 NOSIG
12:09 Land
12:09 Wind:052º@011 Knots
12:09 Heading: 059º
12:09 Flight Duration: 02:04
12:09 Landing Weight: 507466 Lbs
12:09 POS N39º 33´ 13´´ E002º 43´ 28´´
12:11 Parking brakes on
12:11 Block to Block Duration: 02:09
12:11 Final Fuel: 48282 Lbls
12:11 Spent Fuel: 46347 Lbls
12:11 Flight Length: 987 NM
12:11 TOD Land Length: 131 NM

Exportar CSV

Powered by Drupal - Modified by Danger4k